Time;durP1;ratioP1;P1;durP2;ratioP2;P2;SDS_P1;SDS_P2;PMS_P1;PMS_P2;Temp;Humidity;BMP_temperature;BMP_pressure;BME280_temperature;BME280_humidity;BME280_pressure;Samples;Min_cycle;Max_cycle;Signal;HPM_P1;HPM_P2
2021/12/31 00:00:12;;;;;;;1.30;0.82;;;;;;;-143.35;100.00;58682.94;5013978;28;20057;-48
2021/12/31 00:02:38;;;;;;;3.63;1.02;;;;;;;-143.35;100.00;58682.94;5013838;28;20502;-48
2021/12/31 00:05:04;;;;;;;2.25;1.42;;;;;;;-143.35;100.00;58682.94;5015789;28;20026;-48
2021/12/31 00:07:29;;;;;;;3.40;1.17;;;;;;;-143.35;100.00;58682.94;5018089;28;20389;-50
2021/12/31 00:09:59;;;;;;;6.95;1.98;;;;;;;-143.35;100.00;58682.94;5017763;28;20032;-50
2021/12/31 00:12:26;;;;;;;0.70;0.70;;;;;;;-143.35;100.00;58682.94;5017756;28;20030;-48
2021/12/31 00:14:51;;;;;;;1.35;0.98;;;;;;;-143.35;100.00;58682.94;5017629;28;20038;-48
2021/12/31 00:17:17;;;;;;;0.90;0.85;;;;;;;-143.35;100.00;58682.94;5017804;28;20030;-49
2021/12/31 00:19:45;;;;;;;0.77;0.77;;;;;;;-143.35;100.00;58682.94;5017656;28;20499;-47
2021/12/31 00:23:14;;;;;;;1.20;0.65;;;;;;;-143.35;100.00;58682.94;5017535;28;20141;-49
2021/12/31 00:25:06;;;;;;;1.25;0.98;;;;;;;-143.35;100.00;58682.94;5012529;28;20030;-50
2021/12/31 00:27:32;;;;;;;4.07;1.25;;;;;;;-143.35;100.00;58682.94;5017498;28;20079;-48
2021/12/31 00:29:57;;;;;;;1.83;1.17;;;;;;;-143.35;100.00;58682.94;5017481;28;20022;-51
2021/12/31 00:32:22;;;;;;;1.40;0.65;;;;;;;-143.35;100.00;58682.94;5017151;28;20026;-48
2021/12/31 00:34:48;;;;;;;0.60;0.60;;;;;;;-143.35;100.00;58682.94;5017456;28;20026;-48
2021/12/31 00:37:28;;;;;;;3.08;1.00;;;;;;;-143.35;100.00;58682.94;5017270;28;20049;-48
2021/12/31 00:39:54;;;;;;;2.88;0.80;;;;;;;-143.35;100.00;58682.94;5017264;28;20030;-48
2021/12/31 00:42:20;;;;;;;1.50;1.05;;;;;;;-143.35;100.00;58682.94;5017262;28;20034;-47
2021/12/31 00:44:45;;;;;;;5.75;1.48;;;;;;;-143.35;100.00;58682.94;5016929;28;20028;-48
2021/12/31 00:47:10;;;;;;;1.20;1.08;;;;;;;-143.35;100.00;58682.94;5017123;28;20032;-49
2021/12/31 00:49:36;;;;;;;3.53;1.00;;;;;;;-143.35;100.00;58682.94;5017103;28;20034;-47
2021/12/31 00:52:01;;;;;;;2.67;1.63;;;;;;;-143.35;100.00;58682.94;5016893;28;20030;-49
2021/12/31 00:54:26;;;;;;;3.13;0.77;;;;;;;-143.35;100.00;58682.94;5016989;28;20179;-48
2021/12/31 00:56:52;;;;;;;3.45;1.05;;;;;;;-143.35;100.00;58682.94;5016966;28;20107;-48
2021/12/31 00:59:17;;;;;;;1.50;1.00;;;;;;;-143.35;100.00;58682.94;5016913;28;20029;-49
2021/12/31 01:01:42;;;;;;;2.97;1.52;;;;;;;-143.35;100.00;58682.94;5016884;28;20051;-48
2021/12/31 01:04:08;;;;;;;9.20;1.27;;;;;;;-143.35;100.00;58682.94;5016756;28;20136;-47
2021/12/31 01:06:33;;;;;;;1.52;1.08;;;;;;;-143.35;100.00;58682.94;5017279;28;20072;-47
2021/12/31 01:08:58;;;;;;;0.82;0.80;;;;;;;-143.35;100.00;58682.94;5016672;28;20026;-47
2021/12/31 01:11:24;;;;;;;3.30;1.55;;;;;;;-143.35;100.00;58682.94;5016587;28;20032;-47
2021/12/31 01:13:57;;;;;;;6.30;0.95;;;;;;;-143.35;100.00;58682.94;5016247;28;20463;-47
2021/12/31 01:16:25;;;;;;;12.70;1.23;;;;;;;-143.35;100.00;58682.94;5016162;28;20026;-50
2021/12/31 01:21:16;;;;;;;1.45;1.20;;;;;;;-143.35;100.00;58682.94;5016558;28;20030;-47
2021/12/31 01:23:41;;;;;;;7.18;1.40;;;;;;;-143.35;100.00;58682.94;5016287;28;20026;-48
2021/12/31 01:26:07;;;;;;;2.38;1.55;;;;;;;-143.35;100.00;58682.94;5016346;28;20026;-49
2021/12/31 01:28:32;;;;;;;4.95;1.85;;;;;;;-143.35;100.00;58682.94;5016283;28;20053;-48
2021/12/31 01:30:58;;;;;;;2.90;1.33;;;;;;;-143.35;100.00;58682.94;5016378;28;20504;-48
2021/12/31 01:33:23;;;;;;;4.32;1.25;;;;;;;-143.35;100.00;58682.94;5016160;28;20025;-47
2021/12/31 01:35:48;;;;;;;2.05;1.50;;;;;;;-143.35;100.00;58682.94;5016081;28;20021;-48
2021/12/31 01:38:15;;;;;;;3.00;1.83;;;;;;;-143.35;100.00;58682.94;5016141;28;20101;-49
2021/12/31 01:40:43;;;;;;;2.58;1.10;;;;;;;-143.35;100.00;58682.94;5015977;28;20029;-48
2021/12/31 01:43:11;;;;;;;0.75;0.75;;;;;;;-143.35;100.00;58682.94;5016028;28;20042;-48
2021/12/31 01:45:43;;;;;;;2.90;1.40;;;;;;;-143.35;100.00;58682.94;5015820;28;20029;-49
2021/12/31 01:48:21;;;;;;;4.38;1.70;;;;;;;-143.35;100.00;58682.94;5015968;28;20032;-47
2021/12/31 01:50:47;;;;;;;2.20;1.20;;;;;;;-143.35;100.00;58682.94;5015932;28;20022;-50
2021/12/31 01:53:13;;;;;;;2.55;1.00;;;;;;;-143.35;100.00;58682.94;5015856;28;20021;-48
2021/12/31 01:55:39;;;;;;;4.25;1.58;;;;;;;-143.35;100.00;58682.94;5015722;28;20109;-48
2021/12/31 01:58:07;;;;;;;4.00;1.77;;;;;;;-143.35;100.00;58682.94;5015776;28;20030;-49
2021/12/31 02:00:33;;;;;;;4.38;1.55;;;;;;;-143.35;100.00;58682.94;5014506;28;20044;-48
2021/12/31 02:03:01;;;;;;;1.15;1.10;;;;;;;-143.35;100.00;58682.94;5015554;28;20025;-48
2021/12/31 02:05:26;;;;;;;3.63;1.27;;;;;;;-143.35;100.00;58682.94;5015367;28;20052;-50
2021/12/31 02:07:52;;;;;;;3.85;1.48;;;;;;;-143.35;100.00;58682.94;5015570;28;20030;-48
2021/12/31 02:10:17;;;;;;;5.80;1.15;;;;;;;-143.35;100.00;58682.94;5015525;28;20029;-47
2021/12/31 02:12:46;;;;;;;2.63;0.95;;;;;;;-143.35;100.00;58682.94;5015429;28;20105;-50
2021/12/31 02:15:12;;;;;;;4.43;1.20;;;;;;;-143.35;100.00;58682.94;5015299;28;20038;-48
2021/12/31 02:17:37;;;;;;;2.47;0.93;;;;;;;-143.35;100.00;58682.94;5015327;28;20483;-50
2021/12/31 02:20:07;;;;;;;3.30;1.40;;;;;;;-143.35;100.00;58682.94;5015204;28;20026;-47
2021/12/31 02:22:39;;;;;;;1.88;0.95;;;;;;;-143.35;100.00;58682.94;5015337;28;20026;-48
2021/12/31 02:25:06;;;;;;;2.47;1.67;;;;;;;-143.35;100.00;58682.94;5015253;28;20065;-47
2021/12/31 02:27:39;;;;;;;1.95;1.08;;;;;;;-143.35;100.00;58682.94;5014390;28;20030;-48
2021/12/31 02:30:07;;;;;;;3.05;1.40;;;;;;;-143.35;100.00;58682.94;5015136;28;20018;-48
2021/12/31 02:32:33;;;;;;;1.02;0.77;;;;;;;-143.35;100.00;58682.94;5015091;28;20144;-48
2021/12/31 02:34:58;;;;;;;1.13;1.02;;;;;;;-143.35;100.00;58682.94;5015028;28;20049;-47
2021/12/31 02:37:24;;;;;;;2.35;1.15;;;;;;;-143.35;100.00;58682.94;5014914;28;20080;-47
2021/12/31 02:39:49;;;;;;;2.50;1.38;;;;;;;-143.35;100.00;58682.94;5013756;28;20025;-48
2021/12/31 02:42:14;;;;;;;0.85;0.63;;;;;;;-143.35;100.00;58682.94;5014995;28;20064;-47
2021/12/31 02:44:40;;;;;;;1.60;1.25;;;;;;;-143.35;100.00;58682.94;5014766;28;20045;-47
2021/12/31 02:47:07;;;;;;;0.85;0.80;;;;;;;-143.35;100.00;58682.94;5014925;28;20420;-50
2021/12/31 02:49:39;;;;;;;1.55;1.08;;;;;;;-143.35;100.00;58682.94;5014974;28;20022;-48
2021/12/31 02:52:08;;;;;;;4.72;1.02;;;;;;;-143.35;100.00;58682.94;5015380;28;20029;-48
2021/12/31 02:54:37;;;;;;;1.13;1.05;;;;;;;-143.35;100.00;58682.94;5015044;28;20026;-47
2021/12/31 02:57:04;;;;;;;1.65;1.50;;;;;;;-143.35;100.00;58682.94;5014660;28;20041;-47
2021/12/31 02:59:30;;;;;;;1.27;1.00;;;;;;;-143.35;100.00;58682.94;5014629;28;20014;-47
2021/12/31 03:01:55;;;;;;;2.85;1.45;;;;;;;-143.35;100.00;58682.94;5014642;28;20068;-48
2021/12/31 03:04:24;;;;;;;0.90;0.55;;;;;;;-143.35;100.00;58682.94;5014527;28;20081;-47
2021/12/31 03:06:52;;;;;;;2.90;1.30;;;;;;;-143.35;100.00;58682.94;5014681;28;20056;-48
2021/12/31 03:09:22;;;;;;;2.17;1.20;;;;;;;-143.35;100.00;58682.94;5014702;28;20041;-47
2021/12/31 03:11:48;;;;;;;12.45;1.73;;;;;;;-143.35;100.00;58682.94;5014623;28;20032;-48
2021/12/31 03:14:14;;;;;;;4.97;1.23;;;;;;;-143.35;100.00;58682.94;5020920;23;20377;-48
2021/12/31 03:16:40;;;;;;;1.50;0.90;;;;;;;-143.35;100.00;58682.94;5014385;28;20041;-49
2021/12/31 03:19:05;;;;;;;6.55;1.20;;;;;;;-143.35;100.00;58682.94;5014590;28;20025;-47
2021/12/31 03:21:31;;;;;;;2.05;1.20;;;;;;;-143.35;100.00;58682.94;5014354;28;20034;-48
2021/12/31 03:23:58;;;;;;;1.88;1.42;;;;;;;-143.35;100.00;58682.94;5014331;28;20042;-47
2021/12/31 03:26:23;;;;;;;3.15;1.35;;;;;;;-143.35;100.00;58682.94;5014213;28;20037;-47
2021/12/31 03:28:49;;;;;;;5.00;1.13;;;;;;;-143.35;100.00;58682.94;5014198;28;20381;-48
2021/12/31 03:31:15;;;;;;;1.35;0.55;;;;;;;-143.35;100.00;58682.94;5014190;28;20026;-48
2021/12/31 03:33:40;;;;;;;4.72;1.50;;;;;;;-143.35;100.00;58682.94;5014297;28;20081;-47
2021/12/31 03:36:05;;;;;;;2.63;1.02;;;;;;;-143.35;100.00;58682.94;5014231;28;20026;-47
2021/12/31 03:38:31;;;;;;;2.75;0.80;;;;;;;-143.35;100.00;58682.94;5015603;28;20034;-47
2021/12/31 03:40:56;;;;;;;2.92;1.60;;;;;;;-143.35;100.00;58682.94;5018365;28;20026;-48
2021/12/31 03:43:22;;;;;;;3.65;1.00;;;;;;;-143.35;100.00;58682.94;5018313;28;20025;-48
2021/12/31 03:45:50;;;;;;;1.33;1.05;;;;;;;-143.35;100.00;58682.94;5017972;28;20049;-48
2021/12/31 03:48:16;;;;;;;1.70;1.02;;;;;;;-143.35;100.00;58682.94;5018175;28;20017;-48
2021/12/31 03:50:42;;;;;;;2.33;1.42;;;;;;;-143.35;100.00;58682.94;5018080;28;20435;-50
2021/12/31 03:53:07;;;;;;;1.85;0.93;;;;;;;-143.35;100.00;58682.94;5018173;28;20025;-50
2021/12/31 03:55:32;;;;;;;2.80;1.10;;;;;;;-143.35;100.00;58682.94;5018034;28;20354;-49
2021/12/31 03:57:58;;;;;;;2.40;1.13;;;;;;;-143.35;100.00;58682.94;5017047;28;20084;-47
2021/12/31 04:00:23;;;;;;;2.00;1.48;;;;;;;-143.35;100.00;58682.94;5017633;28;20385;-50
2021/12/31 04:02:48;;;;;;;1.00;0.95;;;;;;;-143.35;100.00;58682.94;5017915;28;20056;-48
2021/12/31 04:05:14;;;;;;;0.63;0.63;;;;;;;-143.35;100.00;58682.94;5017989;28;20029;-47
2021/12/31 04:07:39;;;;;;;3.03;0.80;;;;;;;-143.35;100.00;58682.94;5017943;28;20083;-49
2021/12/31 04:10:05;;;;;;;2.35;1.33;;;;;;;-143.35;100.00;58682.94;5017926;28;20493;-48
2021/12/31 04:12:30;;;;;;;3.92;1.00;;;;;;;-143.35;100.00;58682.94;5017752;28;20041;-49
2021/12/31 04:14:56;;;;;;;2.17;1.25;;;;;;;-143.35;100.00;58682.94;5017540;28;20076;-48
2021/12/31 04:17:21;;;;;;;1.75;0.95;;;;;;;-143.35;100.00;58682.94;5017709;28;20029;-47
2021/12/31 04:19:51;;;;;;;1.13;0.95;;;;;;;-143.35;100.00;58682.94;5017538;28;20026;-47
2021/12/31 04:22:17;;;;;;;;;;;;;;;-143.35;100.00;58682.94;5017982;28;20022;-47
2021/12/31 04:27:11;;;;;;;2.20;1.10;;;;;;;-143.35;100.00;58682.94;5017695;28;20034;-50
2021/12/31 04:29:37;;;;;;;2.05;0.95;;;;;;;-143.35;100.00;58682.94;5017483;28;20025;-49
2021/12/31 04:32:03;;;;;;;2.30;0.73;;;;;;;-143.35;100.00;58682.94;5017354;28;20025;-50
2021/12/31 04:34:29;;;;;;;5.47;1.10;;;;;;;-143.35;100.00;58682.94;5017237;28;20041;-48
2021/12/31 04:36:55;;;;;;;1.52;0.85;;;;;;;-143.35;100.00;58682.94;5017379;28;20057;-47
2021/12/31 04:39:21;;;;;;;1.05;0.82;;;;;;;-143.35;100.00;58682.94;5017336;28;20064;-48
2021/12/31 04:41:46;;;;;;;6.28;1.98;;;;;;;-143.35;100.00;58682.94;5017253;28;20025;-50
2021/12/31 04:44:11;;;;;;;2.63;1.27;;;;;;;-143.35;100.00;58682.94;5017187;28;20119;-46
2021/12/31 04:46:37;;;;;;;4.47;1.33;;;;;;;-143.35;100.00;58682.94;5016990;28;20033;-49
2021/12/31 04:49:03;;;;;;;2.00;1.17;;;;;;;-143.35;100.00;58682.94;5017053;28;20100;-47
2021/12/31 04:51:28;;;;;;;0.57;0.57;;;;;;;-143.35;100.00;58682.94;5016078;28;20036;-47
2021/12/31 04:53:54;;;;;;;4.78;1.52;;;;;;;-143.35;100.00;58682.94;5016942;28;20029;-49
2021/12/31 04:56:20;;;;;;;0.52;0.32;;;;;;;-143.35;100.00;58682.94;5016923;28;20120;-50
2021/12/31 04:58:45;;;;;;;2.13;1.52;;;;;;;-143.35;100.00;58682.94;5016911;28;20108;-48
2021/12/31 05:01:11;;;;;;;3.13;1.45;;;;;;;-143.35;100.00;58682.94;5016925;28;20025;-50
2021/12/31 05:03:36;;;;;;;4.03;1.00;;;;;;;-143.35;100.00;58682.94;5016751;28;20026;-48
2021/12/31 05:06:01;;;;;;;0.73;0.65;;;;;;;-143.35;100.00;58682.94;5016622;28;20041;-47
2021/12/31 05:08:27;;;;;;;0.93;0.90;;;;;;;-143.35;100.00;58682.94;5016696;28;20087;-48
2021/12/31 05:10:52;;;;;;;0.82;0.82;;;;;;;-143.35;100.00;58682.94;5016742;28;20026;-50
2021/12/31 05:13:19;;;;;;;1.05;0.95;;;;;;;-143.35;100.00;58682.94;5016434;28;20050;-49
2021/12/31 05:15:46;;;;;;;0.93;0.93;;;;;;;-143.35;100.00;58682.94;5016516;28;20465;-47
2021/12/31 05:18:15;;;;;;;0.90;0.55;;;;;;;-143.35;100.00;58682.94;5016606;28;20022;-47
2021/12/31 05:20:41;;;;;;;1.88;1.02;;;;;;;-143.35;100.00;58682.94;5016749;28;20382;-47
2021/12/31 05:23:08;;;;;;;2.88;0.90;;;;;;;-143.35;100.00;58682.94;5016477;28;20567;-48
2021/12/31 05:25:33;;;;;;;3.55;1.45;;;;;;;-143.35;100.00;58682.94;5017324;28;20022;-47
2021/12/31 05:27:59;;;;;;;1.67;1.27;;;;;;;-143.35;100.00;58682.94;5016403;28;20428;-48
2021/12/31 05:30:25;;;;;;;2.00;1.67;;;;;;;-143.35;100.00;58682.94;5016420;28;20088;-46
2021/12/31 05:32:51;;;;;;;5.15;1.50;;;;;;;-143.35;100.00;58682.94;5016207;28;20421;-47
2021/12/31 05:35:17;;;;;;;2.05;1.67;;;;;;;-143.35;100.00;58682.94;5016207;28;20024;-47
2021/12/31 05:37:42;;;;;;;3.47;1.63;;;;;;;-143.35;100.00;58682.94;5016098;28;20091;-47
2021/12/31 05:40:08;;;;;;;1.65;1.55;;;;;;;-143.35;100.00;58682.94;5015012;28;20021;-47
2021/12/31 05:42:33;;;;;;;2.25;1.75;;;;;;;-143.35;100.00;58682.94;5015943;28;20018;-48
2021/12/31 05:44:58;;;;;;;3.33;1.55;;;;;;;-143.35;100.00;58682.94;5015938;28;20029;-47
2021/12/31 05:47:24;;;;;;;3.15;1.55;;;;;;;-143.35;100.00;58682.94;5015840;28;20032;-50
2021/12/31 05:49:50;;;;;;;6.70;1.60;;;;;;;-143.35;100.00;58682.94;5015906;28;20412;-47
2021/12/31 05:52:16;;;;;;;1.27;1.17;;;;;;;-143.35;100.00;58682.94;5015876;28;20052;-50
2021/12/31 05:54:41;;;;;;;1.02;0.98;;;;;;;-143.35;100.00;58682.94;5015869;28;20525;-50
2021/12/31 05:57:07;;;;;;;1.48;1.35;;;;;;;-143.35;100.00;58682.94;5015899;28;20053;-48
2021/12/31 05:59:32;;;;;;;1.38;0.70;;;;;;;-143.35;100.00;58682.94;5015778;28;20022;-48
2021/12/31 06:01:57;;;;;;;2.05;0.90;;;;;;;-143.35;100.00;58682.94;5015846;28;20473;-47
2021/12/31 06:04:22;;;;;;;4.97;1.25;;;;;;;-143.35;100.00;58682.94;5015685;28;20037;-49
2021/12/31 06:06:48;;;;;;;1.45;1.20;;;;;;;-143.35;100.00;58682.94;5015746;28;20030;-47
2021/12/31 06:09:14;;;;;;;0.70;0.50;;;;;;;-143.35;100.00;58682.94;5015624;28;20071;-50
2021/12/31 06:11:40;;;;;;;1.17;0.70;;;;;;;-143.35;100.00;58682.94;5015645;28;20034;-47
2021/12/31 06:14:07;;;;;;;1.65;1.00;;;;;;;-143.35;100.00;58682.94;5015445;28;20057;-50
2021/12/31 06:16:36;;;;;;;0.52;0.52;;;;;;;-143.35;100.00;58682.94;5015601;28;20083;-49
2021/12/31 06:19:05;;;;;;;1.23;0.98;;;;;;;-143.35;100.00;58682.94;5015383;28;20029;-48
2021/12/31 06:21:36;;;;;;;2.88;1.27;;;;;;;-143.35;100.00;58682.94;5015382;28;20034;-48
2021/12/31 06:24:02;;;;;;;0.75;0.68;;;;;;;-143.35;100.00;58682.94;5015260;28;20049;-50
2021/12/31 06:26:27;;;;;;;1.63;1.08;;;;;;;-143.35;100.00;58682.94;5015320;28;20066;-49
2021/12/31 06:28:53;;;;;;;1.52;1.20;;;;;;;-143.35;100.00;58682.94;5015292;28;20025;-47
2021/12/31 06:31:18;;;;;;;4.38;1.80;;;;;;;-143.35;100.00;58682.94;5014280;28;20036;-49
2021/12/31 06:33:44;;;;;;;4.93;1.20;;;;;;;-143.35;100.00;58682.94;5015166;28;20034;-48
2021/12/31 06:36:09;;;;;;;1.05;1.05;;;;;;;-143.35;100.00;58682.94;5015251;28;20021;-48
2021/12/31 06:38:35;;;;;;;1.67;1.42;;;;;;;-143.35;100.00;58682.94;5015167;28;20370;-48
2021/12/31 06:41:00;;;;;;;1.45;0.90;;;;;;;-143.35;100.00;58682.94;5014931;28;20025;-48
2021/12/31 06:43:25;;;;;;;1.17;1.00;;;;;;;-143.35;100.00;58682.94;5015013;28;20018;-48
2021/12/31 06:45:51;;;;;;;3.75;1.25;;;;;;;-143.35;100.00;58682.94;5014917;28;20030;-46
2021/12/31 06:48:16;;;;;;;1.55;0.90;;;;;;;-143.35;100.00;58682.94;5014786;28;20028;-47
2021/12/31 06:50:41;;;;;;;1.00;1.00;;;;;;;-143.35;100.00;58682.94;5014970;28;20132;-48
2021/12/31 06:53:07;;;;;;;2.75;1.05;;;;;;;-143.35;100.00;58682.94;5014797;28;20056;-49
2021/12/31 06:55:32;;;;;;;0.75;0.75;;;;;;;-143.35;100.00;58682.94;5014788;28;20018;-48
2021/12/31 06:57:58;;;;;;;1.70;0.80;;;;;;;-143.35;100.00;58682.94;5014840;28;20061;-47
2021/12/31 07:00:24;;;;;;;2.92;1.35;;;;;;;-143.35;100.00;58682.94;5014647;28;20021;-48
2021/12/31 07:02:50;;;;;;;3.00;1.08;;;;;;;-143.35;100.00;58682.94;5014713;28;20022;-47
2021/12/31 07:05:16;;;;;;;4.30;0.88;;;;;;;-143.35;100.00;58682.94;5014580;28;20026;-47
2021/12/31 07:07:41;;;;;;;3.38;1.67;;;;;;;-143.35;100.00;58682.94;5014459;28;20175;-48
2021/12/31 07:10:07;;;;;;;1.52;0.95;;;;;;;-143.35;100.00;58682.94;5014545;28;20108;-47
2021/12/31 07:12:33;;;;;;;0.50;0.50;;;;;;;-143.35;100.00;58682.94;5014579;28;20060;-47
2021/12/31 07:14:58;;;;;;;1.58;1.00;;;;;;;-143.35;100.00;58682.94;5014940;28;20572;-47
2021/12/31 07:17:24;;;;;;;1.35;0.77;;;;;;;-143.35;100.00;58682.94;5014531;28;20466;-47
2021/12/31 07:19:49;;;;;;;2.13;1.45;;;;;;;-143.35;100.00;58682.94;5014653;28;20022;-47
2021/12/31 07:22:14;;;;;;;5.85;1.75;;;;;;;-143.35;100.00;58682.94;5014573;28;20077;-47
2021/12/31 07:24:40;;;;;;;3.47;1.40;;;;;;;-143.35;100.00;58682.94;5014365;28;20033;-47
2021/12/31 07:27:05;;;;;;;3.22;0.90;;;;;;;-143.35;100.00;58682.94;5014401;28;20091;-47
2021/12/31 07:29:30;;;;;;;2.25;1.08;;;;;;;-143.35;100.00;58682.94;5014326;28;20037;-49
2021/12/31 07:31:56;;;;;;;0.85;0.70;;;;;;;-143.35;100.00;58682.94;5014379;28;20377;-47
2021/12/31 07:34:21;;;;;;;1.63;1.13;;;;;;;-143.35;100.00;58682.94;5014117;28;20038;-47
2021/12/31 07:36:47;;;;;;;1.60;1.50;;;;;;;-143.35;100.00;58682.94;5014268;28;20105;-47
2021/12/31 07:39:13;;;;;;;1.35;0.80;;;;;;;-143.35;100.00;58682.94;5014217;28;20061;-48
2021/12/31 07:41:39;;;;;;;1.23;0.82;;;;;;;-143.35;100.00;58682.94;5014119;28;20022;-47
2021/12/31 07:44:06;;;;;;;2.55;1.50;;;;;;;-143.35;100.00;58682.94;5014206;28;20080;-49
2021/12/31 07:46:32;;;;;;;1.48;0.95;;;;;;;-143.35;100.00;58682.94;5013988;28;20049;-47
2021/12/31 07:48:57;;;;;;;4.53;1.25;;;;;;;-143.35;100.00;58682.94;5014152;28;20092;-47
2021/12/31 07:51:23;;;;;;;2.72;1.92;;;;;;;-143.35;100.00;58682.94;5014117;28;20029;-47
2021/12/31 07:53:48;;;;;;;0.80;0.80;;;;;;;-143.35;100.00;58682.94;5014127;28;20021;-47
2021/12/31 07:56:18;;;;;;;1.95;1.10;;;;;;;-143.35;100.00;58682.94;5014052;28;20350;-47
2021/12/31 07:58:43;;;;;;;1.77;1.15;;;;;;;-143.35;100.00;58682.94;5014025;28;20064;-47
2021/12/31 08:01:09;;;;;;;2.97;0.82;;;;;;;-143.35;100.00;58682.94;5014025;28;20038;-47
2021/12/31 08:03:35;;;;;;;5.50;1.10;;;;;;;-143.35;100.00;58682.94;5014072;28;20022;-48
2021/12/31 08:06:00;;;;;;;0.60;0.60;;;;;;;-143.35;100.00;58682.94;5014005;28;20052;-48
2021/12/31 08:08:26;;;;;;;0.85;0.85;;;;;;;-143.35;100.00;58682.94;5014089;28;20115;-49
2021/12/31 08:10:51;;;;;;;0.82;0.82;;;;;;;-143.35;100.00;58682.94;5014035;28;20373;-47
2021/12/31 08:13:16;;;;;;;1.20;1.10;;;;;;;-143.35;100.00;58682.94;5013628;28;20081;-47
2021/12/31 08:15:42;;;;;;;3.97;1.60;;;;;;;-143.35;100.00;58682.94;5013878;28;20478;-47
2021/12/31 08:18:07;;;;;;;1.40;1.17;;;;;;;-143.35;100.00;58682.94;5012825;28;20087;-48
2021/12/31 08:20:35;;;;;;;0.70;0.70;;;;;;;-143.35;100.00;58682.94;5014019;28;20018;-48
2021/12/31 08:23:09;;;;;;;0.82;0.73;;;;;;;-143.35;100.00;58682.94;5014233;28;20065;-47
2021/12/31 08:25:34;;;;;;;1.65;1.45;;;;;;;-143.35;100.00;58682.94;5015154;28;20065;-47
2021/12/31 08:28:00;;;;;;;5.18;1.55;;;;;;;-143.35;100.00;58682.94;5017637;28;20061;-47
2021/12/31 08:30:25;;;;;;;5.10;1.85;;;;;;;-143.35;100.00;58682.94;5017465;28;20518;-48
2021/12/31 08:32:50;;;;;;;3.88;2.05;;;;;;;-143.35;100.00;58682.94;5017426;28;20061;-47
2021/12/31 08:35:16;;;;;;;2.10;1.67;;;;;;;-143.35;100.00;58682.94;5017557;28;20021;-49
2021/12/31 08:37:41;;;;;;;1.55;1.25;;;;;;;-143.35;100.00;58682.94;5017356;28;20021;-47
2021/12/31 08:40:07;;;;;;;1.75;1.15;;;;;;;-143.35;100.00;58682.94;5017490;28;20017;-47
2021/12/31 08:42:32;;;;;;;6.32;1.80;;;;;;;-143.35;100.00;58682.94;5017284;28;20041;-50
2021/12/31 08:44:57;;;;;;;4.38;1.95;;;;;;;-143.35;100.00;58682.94;5017169;28;20025;-47
2021/12/31 08:47:23;;;;;;;4.45;1.70;;;;;;;-143.35;100.00;58682.94;5017015;28;20026;-50
2021/12/31 08:49:49;;;;;;;2.80;2.03;;;;;;;-143.35;100.00;58682.94;5017233;28;20072;-47
2021/12/31 08:52:15;;;;;;;3.70;1.85;;;;;;;-143.35;100.00;58682.94;5017092;28;20056;-47
2021/12/31 08:54:40;;;;;;;2.25;2.10;;;;;;;-143.35;100.00;58682.94;5016958;28;20057;-49
2021/12/31 08:57:05;;;;;;;3.60;1.92;;;;;;;-143.35;100.00;58682.94;5017020;28;20050;-50
2021/12/31 08:59:31;;;;;;;3.85;2.25;;;;;;;-143.35;100.00;58682.94;5015666;28;20034;-47
2021/12/31 09:01:56;;;;;;;2.85;2.08;;;;;;;-143.35;100.00;58682.94;5015590;28;20053;-47
2021/12/31 09:04:22;;;;;;;3.30;1.70;;;;;;;-143.35;100.00;58682.94;5016761;28;20061;-50
2021/12/31 09:06:48;;;;;;;2.58;2.03;;;;;;;-143.35;100.00;58682.94;5016667;28;20049;-50
2021/12/31 09:09:13;;;;;;;2.17;1.88;;;;;;;-143.35;100.00;58682.94;5016773;28;20381;-50
2021/12/31 09:11:38;;;;;;;6.15;2.53;;;;;;;-143.35;100.00;58682.94;5016737;28;20355;-47
2021/12/31 09:14:04;;;;;;;3.63;1.77;;;;;;;-143.35;100.00;58682.94;5016431;28;20056;-50
2021/12/31 09:16:29;;;;;;;2.17;1.80;;;;;;;-143.35;100.00;58682.94;5016542;28;20026;-48
2021/12/31 09:18:54;;;;;;;2.70;1.70;;;;;;;-143.35;100.00;58682.94;5016518;28;20363;-48
2021/12/31 09:21:22;;;;;;;6.40;1.50;;;;;;;-143.35;100.00;58682.94;5016547;28;20037;-47
2021/12/31 09:23:47;;;;;;;2.53;1.58;;;;;;;-143.35;100.00;58682.94;5016392;28;20466;-48
2021/12/31 09:26:15;;;;;;;2.38;1.40;;;;;;;-143.35;100.00;58682.94;5016373;28;20025;-47
2021/12/31 09:28:40;;;;;;;1.48;1.38;;;;;;;-143.35;100.00;58682.94;5016480;28;20397;-48
2021/12/31 09:31:07;;;;;;;3.38;2.58;;;;;;;-143.35;100.00;58682.94;5016323;28;20026;-50
2021/12/31 09:33:33;;;;;;;0.75;0.75;;;;;;;-143.35;100.00;58682.94;5016340;28;20030;-47
2021/12/31 09:35:59;;;;;;;5.18;1.45;;;;;;;-143.35;100.00;58682.94;5015788;28;20020;-48
2021/12/31 09:38:24;;;;;;;2.10;1.55;;;;;;;-143.35;100.00;58682.94;5016388;28;20026;-48
2021/12/31 09:40:49;;;;;;;1.30;1.17;;;;;;;-143.35;100.00;58682.94;5016103;28;20025;-48
2021/12/31 09:43:15;;;;;;;1.17;1.10;;;;;;;-143.35;100.00;58682.94;5016314;28;20481;-47
2021/12/31 09:45:44;;;;;;;0.60;0.60;;;;;;;-143.35;100.00;58682.94;5015994;28;20030;-47
2021/12/31 09:48:21;;;;;;;3.42;1.60;;;;;;;-143.35;100.00;58682.94;5016016;28;20382;-48
2021/12/31 09:50:49;;;;;;;2.80;1.00;;;;;;;-143.35;100.00;58682.94;5016489;28;20493;-51
2021/12/31 09:53:17;;;;;;;1.23;1.10;;;;;;;-143.35;100.00;58682.94;5016780;28;20022;-47
2021/12/31 09:55:45;;;;;;;3.22;1.50;;;;;;;-143.35;100.00;58682.94;5016003;28;20065;-47
2021/12/31 09:58:12;;;;;;;1.83;1.15;;;;;;;-143.35;100.00;58682.94;5015928;28;20064;-47
2021/12/31 10:00:41;;;;;;;4.32;0.60;;;;;;;-143.35;100.00;58682.94;5015781;28;20022;-47
2021/12/31 10:03:17;;;;;;;2.28;1.25;;;;;;;-143.35;100.00;58682.94;5015842;28;20034;-47
2021/12/31 10:05:48;;;;;;;2.03;1.08;;;;;;;-143.35;100.00;58682.94;5015476;28;20040;-47
2021/12/31 10:08:26;;;;;;;0.73;0.63;;;;;;;-143.35;100.00;58682.94;5015575;28;20036;-47
2021/12/31 10:11:13;;;;;;;3.55;1.70;;;;;;;-143.35;100.00;58682.94;5015596;28;20358;-50
2021/12/31 10:13:44;;;;;;;1.13;0.70;;;;;;;-143.35;100.00;58682.94;5015452;28;20440;-47
2021/12/31 10:16:27;;;;;;;1.55;1.25;;;;;;;-143.35;100.00;58682.94;5015718;28;20028;-48
2021/12/31 10:19:09;;;;;;;1.08;1.00;;;;;;;-143.35;100.00;58682.94;5015506;28;20022;-49
2021/12/31 10:21:46;;;;;;;0.50;0.50;;;;;;;-143.35;100.00;58682.94;5003485;28;20116;-50
2021/12/31 10:24:41;;;;;;;0.30;0.30;;;;;;;-143.35;100.00;58682.94;4995852;28;20359;-48
2021/12/31 10:27:09;;;;;;;2.13;1.70;;;;;;;-143.35;100.00;58682.94;4986755;28;20042;-47
2021/12/31 10:29:34;;;;;;;4.13;1.08;;;;;;;-143.35;100.00;58682.94;4995633;28;20030;-47
2021/12/31 10:31:59;;;;;;;1.83;0.60;;;;;;;-143.35;100.00;58682.94;5000418;28;20041;-48
2021/12/31 10:34:29;;;;;;;1.35;0.93;;;;;;;-143.35;100.00;58682.94;5015080;28;20029;-47
2021/12/31 10:37:00;;;;;;;1.70;1.20;;;;;;;-143.35;100.00;58682.94;5015235;28;20053;-47
2021/12/31 10:39:27;;;;;;;1.23;0.65;;;;;;;-143.35;100.00;58682.94;5015185;28;20529;-46
2021/12/31 10:42:05;;;;;;;3.08;1.23;;;;;;;-143.35;100.00;58682.94;5015024;28;20029;-49
2021/12/31 10:44:44;;;;;;;1.10;0.75;;;;;;;-143.35;100.00;58682.94;5014917;28;20104;-48
2021/12/31 10:47:12;;;;;;;2.83;1.30;;;;;;;-143.35;100.00;58682.94;5014953;28;20195;-47
2021/12/31 10:49:55;;;;;;;0.45;0.45;;;;;;;-143.35;100.00;58682.94;5014192;28;20030;-48
2021/12/31 10:52:29;;;;;;;1.08;0.98;;;;;;;-143.35;100.00;58682.94;5014772;28;20037;-49
2021/12/31 10:55:23;;;;;;;0.95;0.82;;;;;;;-143.35;100.00;58682.94;5014920;28;20092;-47
2021/12/31 10:57:51;;;;;;;1.40;0.85;;;;;;;-143.35;100.00;58682.94;5014995;28;20032;-47
2021/12/31 11:00:19;;;;;;;1.45;1.30;;;;;;;-143.35;100.00;58682.94;5014645;28;20026;-49
2021/12/31 11:02:45;;;;;;;4.40;1.13;;;;;;;-143.35;100.00;58682.94;5014750;28;20477;-50
2021/12/31 11:05:13;;;;;;;1.30;1.20;;;;;;;-143.35;100.00;58682.94;5014499;28;20377;-47
2021/12/31 11:07:40;;;;;;;9.85;1.95;;;;;;;-143.35;100.00;58682.94;5013345;28;20029;-47
2021/12/31 11:10:07;;;;;;;6.35;2.55;;;;;;;-143.35;100.00;58682.94;5014498;28;20084;-47
2021/12/31 11:12:34;;;;;;;1.58;1.48;;;;;;;-143.35;100.00;58682.94;5014486;28;20037;-48